createdAt,value
2023-01-28T00:00:52.831Z,2.15
2023-01-28T00:03:20.439Z,2.55
2023-01-28T00:05:48.208Z,1.23
2023-01-28T00:08:17.157Z,2.38
2023-01-28T00:10:44.728Z,1.23
2023-01-28T00:13:14.555Z,1.88
2023-01-28T00:15:42.126Z,2.63
2023-01-28T00:18:09.875Z,2.38
2023-01-28T00:20:37.738Z,1.67
2023-01-28T00:23:05.732Z,2.03
2023-01-28T00:25:34.557Z,1.85
2023-01-28T00:28:02.153Z,1.88
2023-01-28T00:30:29.691Z,3.53
2023-01-28T00:32:57.370Z,2.22
2023-01-28T00:35:24.857Z,2.80
2023-01-28T00:37:52.401Z,0.98
2023-01-28T00:40:20.701Z,1.63
2023-01-28T00:42:49.581Z,1.45
2023-01-28T00:45:17.620Z,1.52
2023-01-28T00:47:45.560Z,2.15
2023-01-28T00:50:13.135Z,2.42
2023-01-28T00:52:40.886Z,2.13
2023-01-28T00:55:09.392Z,1.48
2023-01-28T00:57:37.337Z,1.20
2023-01-28T01:00:08.314Z,1.50
2023-01-28T01:02:35.907Z,4.22
2023-01-28T01:05:03.568Z,1.73
2023-01-28T01:07:41.935Z,2.28
2023-01-28T01:10:10.942Z,1.90
2023-01-28T01:12:39.025Z,1.17
2023-01-28T01:15:11.103Z,3.60
2023-01-28T01:17:38.967Z,1.92
2023-01-28T01:20:10.069Z,2.20
2023-01-28T01:22:38.262Z,2.25
2023-01-28T01:25:06.869Z,1.92
2023-01-28T01:27:34.404Z,4.80
2023-01-28T01:30:02.183Z,1.58
2023-01-28T01:32:32.700Z,1.80
2023-01-28T01:35:00.635Z,1.30
2023-01-28T01:37:28.448Z,1.95
2023-01-28T01:39:56.946Z,1.77
2023-01-28T01:42:26.553Z,2.13
2023-01-28T01:45:00.321Z,3.17
2023-01-28T01:47:36.826Z,2.85
2023-01-28T01:50:12.680Z,1.42
2023-01-28T01:52:41.881Z,2.15
2023-01-28T01:55:13.849Z,1.38
2023-01-28T01:57:43.600Z,2.42
2023-01-28T02:00:12.409Z,1.45
2023-01-28T02:02:46.813Z,1.77
2023-01-28T02:05:17.725Z,3.70
2023-01-28T02:07:47.836Z,2.30
2023-01-28T02:10:16.315Z,2.17
2023-01-28T02:12:46.334Z,1.15
2023-01-28T02:15:18.167Z,1.83
2023-01-28T02:17:47.655Z,2.15
2023-01-28T02:20:22.175Z,3.22
2023-01-28T02:23:16.402Z,2.55
2023-01-28T02:26:23.976Z,2.80
2023-01-28T02:29:00.550Z,3.00
2023-01-28T02:31:34.516Z,3.70
2023-01-28T02:34:09.226Z,2.58
2023-01-28T02:36:43.049Z,2.40
2023-01-28T02:39:21.004Z,4.05
2023-01-28T02:41:54.078Z,2.72
2023-01-28T02:44:23.658Z,3.88
2023-01-28T02:47:10.766Z,2.03
2023-01-28T02:49:44.531Z,2.17
2023-01-28T02:53:04.233Z,1.85
2023-01-28T02:55:39.385Z,1.95
2023-01-28T02:58:18.002Z,1.88
2023-01-28T03:00:51.764Z,2.50
2023-01-28T03:03:26.827Z,1.40
2023-01-28T03:06:07.731Z,1.95
2023-01-28T03:08:57.204Z,3.58
2023-01-28T03:11:43.065Z,2.63
2023-01-28T03:14:29.358Z,1.98
2023-01-28T03:17:18.567Z,3.30
2023-01-28T03:20:04.826Z,1.92
2023-01-28T03:22:52.680Z,2.92
2023-01-28T03:25:39.882Z,3.13
2023-01-28T03:28:29.784Z,4.10
2023-01-28T03:31:23.269Z,1.95
2023-01-28T03:34:13.649Z,2.15
2023-01-28T03:36:51.296Z,2.53
2023-01-28T03:39:42.299Z,2.25
2023-01-28T03:42:14.655Z,2.25
2023-01-28T03:44:53.065Z,1.73
2023-01-28T03:47:23.321Z,1.73
2023-01-28T03:49:53.764Z,3.33
2023-01-28T03:52:24.859Z,2.20
2023-01-28T03:54:54.453Z,2.50
2023-01-28T03:57:24.444Z,3.78
2023-01-28T03:59:52.733Z,2.60
2023-01-28T04:02:22.458Z,1.65
2023-01-28T04:04:53.415Z,2.72
2023-01-28T04:07:21.045Z,2.25
2023-01-28T04:10:09.749Z,2.55
2023-01-28T04:12:49.823Z,2.08
2023-01-28T04:15:18.380Z,4.22
2023-01-28T04:17:47.950Z,3.33
2023-01-28T04:20:28.014Z,3.13
2023-01-28T04:22:58.376Z,2.65
2023-01-28T04:25:26.062Z,3.47
2023-01-28T04:27:53.673Z,1.90
2023-01-28T04:30:23.599Z,2.83
2023-01-28T04:33:17.082Z,1.67
2023-01-28T04:35:57.619Z,2.35
2023-01-28T04:38:43.886Z,2.60
2023-01-28T04:41:31.419Z,2.45
2023-01-28T04:44:05.546Z,2.45
2023-01-28T04:46:51.888Z,2.47
2023-01-28T04:49:42.485Z,4.30
2023-01-28T04:52:15.548Z,2.30
2023-01-28T04:55:07.618Z,1.92
2023-01-28T04:57:35.198Z,3.30
2023-01-28T05:00:02.880Z,2.22
2023-01-28T05:02:30.565Z,2.88
2023-01-28T05:05:01.429Z,2.95
2023-01-28T05:07:55.266Z,3.17
2023-01-28T05:10:23.578Z,2.65
2023-01-28T05:12:51.168Z,3.58
2023-01-28T05:15:20.581Z,5.50
2023-01-28T05:17:49.053Z,3.50
2023-01-28T05:20:19.889Z,4.53
2023-01-28T05:22:49.634Z,2.85
2023-01-28T05:25:22.336Z,5.45
2023-01-28T05:27:53.673Z,3.85
2023-01-28T05:30:22.370Z,3.35
2023-01-28T05:32:50.552Z,3.33
2023-01-28T05:35:22.346Z,4.88
2023-01-28T05:37:50.041Z,3.28
2023-01-28T05:40:19.168Z,5.93
2023-01-28T05:42:48.162Z,6.30
2023-01-28T05:45:27.117Z,7.28
2023-01-28T05:48:23.676Z,6.40
2023-01-28T05:51:11.371Z,6.00
2023-01-28T05:53:43.102Z,19.42
2023-01-28T05:56:10.713Z,8.00
2023-01-28T05:58:41.007Z,3.55
2023-01-28T06:01:08.659Z,3.58
2023-01-28T06:03:41.277Z,4.07
2023-01-28T06:06:08.968Z,13.52
2023-01-28T06:08:37.225Z,17.13
2023-01-28T06:11:05.077Z,11.95
2023-01-28T06:13:34.800Z,7.25
2023-01-28T06:16:16.719Z,5.30
2023-01-28T06:19:00.951Z,7.07
2023-01-28T06:21:30.204Z,6.22
2023-01-28T06:23:58.968Z,4.53
2023-01-28T06:26:26.566Z,5.45
2023-01-28T06:28:54.236Z,7.82
2023-01-28T06:31:23.232Z,6.07
2023-01-28T06:33:50.842Z,5.68
2023-01-28T06:36:18.397Z,5.47
2023-01-28T06:38:46.440Z,4.55
2023-01-28T06:41:13.969Z,7.30
2023-01-28T06:43:41.512Z,5.47
2023-01-28T06:46:09.163Z,5.80
2023-01-28T06:48:38.112Z,5.47
2023-01-28T06:51:06.139Z,6.07
2023-01-28T06:53:33.622Z,5.95
2023-01-28T06:56:01.191Z,6.85
2023-01-28T06:58:28.752Z,6.13
2023-01-28T07:00:56.397Z,6.28
2023-01-28T07:03:23.913Z,5.93
2023-01-28T07:05:52.856Z,5.63
2023-01-28T07:08:20.433Z,9.45
2023-01-28T07:10:49.223Z,5.25
2023-01-28T07:13:16.852Z,5.75
2023-01-28T07:15:44.427Z,5.93
2023-01-28T07:18:12.032Z,6.28
2023-01-28T07:20:39.653Z,6.28
2023-01-28T07:23:08.605Z,8.50
2023-01-28T07:25:36.261Z,8.13
2023-01-28T07:28:03.840Z,11.38
2023-01-28T07:30:31.495Z,7.15
2023-01-28T07:33:00.227Z,9.20
2023-01-28T07:35:28.017Z,10.15
2023-01-28T07:37:56.341Z,6.53
2023-01-28T07:40:26.870Z,9.00
2023-01-28T07:42:55.427Z,7.60
2023-01-28T07:45:24.106Z,7.68
2023-01-28T07:47:56.259Z,7.07
2023-01-28T07:50:24.003Z,7.50
2023-01-28T07:52:51.660Z,7.43
2023-01-28T07:55:19.529Z,7.68
2023-01-28T07:57:56.683Z,7.35
2023-01-28T08:00:25.679Z,9.02
2023-01-28T08:02:57.160Z,10.30
2023-01-28T08:05:27.224Z,8.00
2023-01-28T08:07:55.190Z,8.63
2023-01-28T08:10:22.743Z,9.48
2023-01-28T08:12:56.196Z,10.57
2023-01-28T08:15:24.031Z,9.98
2023-01-28T08:17:52.065Z,11.23
2023-01-28T08:20:19.868Z,10.00
2023-01-28T08:22:47.480Z,10.10
2023-01-28T08:25:15.238Z,8.60
2023-01-28T08:27:42.930Z,9.95
2023-01-28T08:30:13.432Z,8.25
2023-01-28T08:32:41.385Z,11.18
2023-01-28T08:35:09.438Z,8.93
2023-01-28T08:37:37.081Z,9.27
2023-01-28T08:40:05.334Z,8.90
2023-01-28T08:42:32.951Z,9.43
2023-01-28T08:45:00.526Z,8.95
2023-01-28T08:47:29.409Z,10.07
2023-01-28T08:49:57.041Z,9.38
2023-01-28T08:52:25.136Z,10.07
2023-01-28T08:54:52.726Z,10.05
2023-01-28T08:57:20.306Z,9.15
2023-01-28T08:59:47.890Z,8.30
2023-01-28T09:02:30.235Z,9.20
2023-01-28T09:05:00.292Z,10.32
2023-01-28T09:07:27.959Z,8.27
2023-01-28T09:09:55.506Z,8.93
2023-01-28T09:12:23.373Z,9.82
2023-01-28T09:14:52.082Z,7.93
2023-01-28T09:17:19.867Z,8.35
2023-01-28T09:19:47.430Z,8.85
2023-01-28T09:22:16.331Z,10.07
2023-01-28T09:24:44.189Z,9.40
2023-01-28T09:27:12.505Z,8.88
2023-01-28T09:29:40.154Z,8.25
2023-01-28T09:32:08.162Z,9.75
2023-01-28T09:34:36.330Z,7.72
2023-01-28T09:37:03.938Z,9.65
2023-01-28T09:39:33.323Z,7.25
2023-01-28T09:42:19.041Z,6.45
2023-01-28T09:44:59.847Z,5.35
2023-01-28T09:47:31.680Z,7.13
2023-01-28T09:50:12.098Z,5.95
2023-01-28T09:52:42.087Z,8.02
2023-01-28T09:55:17.885Z,6.80
2023-01-28T09:57:48.542Z,5.53
2023-01-28T10:00:17.645Z,4.68
2023-01-28T10:03:02.252Z,4.90
2023-01-28T10:05:40.588Z,5.93
2023-01-28T10:08:26.500Z,7.45
2023-01-28T10:11:00.770Z,6.72
2023-01-28T10:13:41.034Z,7.60
2023-01-28T10:16:18.081Z,8.02
2023-01-28T10:18:49.793Z,6.30
2023-01-28T10:21:23.570Z,7.20
2023-01-28T10:23:59.618Z,7.30
2023-01-28T10:26:33.976Z,6.97
2023-01-28T10:29:05.677Z,6.78
2023-01-28T10:31:38.897Z,6.70
2023-01-28T10:34:06.981Z,6.78
2023-01-28T10:36:35.355Z,6.72
2023-01-28T10:39:03.023Z,7.28
2023-01-28T10:41:33.138Z,7.25
2023-01-28T10:44:00.795Z,8.73
2023-01-28T10:46:33.149Z,7.25
2023-01-28T10:49:07.184Z,9.52
2023-01-28T10:51:37.140Z,9.75
2023-01-28T10:54:18.477Z,10.35
2023-01-28T10:56:48.923Z,12.85
2023-01-28T10:59:21.764Z,8.98
2023-01-28T11:01:52.097Z,8.77
2023-01-28T11:04:24.403Z,10.52
2023-01-28T11:06:57.356Z,9.18
2023-01-28T11:09:26.870Z,15.60
2023-01-28T11:11:55.883Z,13.57
2023-01-28T11:14:25.535Z,9.65
2023-01-28T11:16:55.380Z,11.38
2023-01-28T11:19:29.940Z,12.40
2023-01-28T11:21:59.498Z,11.85
2023-01-28T11:24:31.178Z,12.45
2023-01-28T11:27:12.578Z,10.73
2023-01-28T11:29:42.015Z,11.20
2023-01-28T11:32:18.845Z,11.23
2023-01-28T11:34:51.274Z,9.35
2023-01-28T11:37:22.822Z,10.48
2023-01-28T11:39:50.735Z,10.20
2023-01-28T11:42:21.248Z,9.50
2023-01-28T11:44:50.077Z,9.82
2023-01-28T11:47:27.902Z,12.55
2023-01-28T11:50:18.764Z,11.45
2023-01-28T11:53:07.427Z,11.93
2023-01-28T11:55:57.018Z,12.23
2023-01-28T11:58:33.020Z,10.95
2023-01-28T12:01:07.785Z,11.40
2023-01-28T12:03:44.082Z,11.95
2023-01-28T12:06:29.185Z,10.35
2023-01-28T12:09:07.951Z,16.00
2023-01-28T12:12:04.673Z,12.55
2023-01-28T12:14:45.198Z,12.90
2023-01-28T12:17:24.818Z,9.77
2023-01-28T12:20:06.732Z,10.02
2023-01-28T12:22:54.254Z,12.57
2023-01-28T12:25:35.904Z,10.70
2023-01-28T12:28:12.285Z,9.20
2023-01-28T12:30:56.664Z,10.70
2023-01-28T12:33:50.621Z,16.52
2023-01-28T12:36:32.089Z,11.65
2023-01-28T12:39:11.600Z,15.52
2023-01-28T12:41:43.348Z,12.55
2023-01-28T12:44:14.963Z,13.07
2023-01-28T12:46:47.565Z,10.95
2023-01-28T12:49:20.708Z,12.63
2023-01-28T12:51:55.284Z,11.30
2023-01-28T12:54:29.797Z,12.40
2023-01-28T12:56:57.946Z,12.18
2023-01-28T12:59:30.288Z,12.50
2023-01-28T13:02:07.113Z,12.80
2023-01-28T13:04:41.537Z,11.70
2023-01-28T13:07:17.386Z,13.88
2023-01-28T13:09:50.950Z,13.38
2023-01-28T13:12:19.617Z,15.18
2023-01-28T13:14:52.632Z,13.35
2023-01-28T13:17:29.175Z,14.60
2023-01-28T13:19:58.170Z,13.93
2023-01-28T13:22:31.827Z,13.70
2023-01-28T13:25:14.521Z,14.25
2023-01-28T13:27:42.232Z,14.75
2023-01-28T13:30:25.960Z,14.95
2023-01-28T13:33:00.742Z,15.40
2023-01-28T13:35:34.307Z,14.00
2023-01-28T13:38:08.678Z,16.48
2023-01-28T13:40:37.266Z,16.40
2023-01-28T13:43:07.276Z,16.13
2023-01-28T13:45:35.050Z,16.38
2023-01-28T13:48:22.863Z,18.15
2023-01-28T13:50:53.813Z,18.42
2023-01-28T13:53:31.724Z,14.15
2023-01-28T13:56:08.807Z,12.95
2023-01-28T13:59:08.507Z,15.15
2023-01-28T14:02:14.992Z,16.33
2023-01-28T14:05:15.989Z,16.38
2023-01-28T14:08:10.015Z,15.05
2023-01-28T14:10:53.194Z,16.42
2023-01-28T14:13:38.682Z,11.60
2023-01-28T14:16:21.079Z,12.88
2023-01-28T14:18:50.309Z,13.38
2023-01-28T14:21:21.099Z,15.70
2023-01-28T14:23:50.456Z,13.77
2023-01-28T14:26:43.127Z,13.43
2023-01-28T14:29:21.350Z,12.75
2023-01-28T14:31:49.147Z,12.63
2023-01-28T14:34:24.184Z,16.40
2023-01-28T14:36:56.935Z,13.07
2023-01-28T14:39:28.242Z,16.70
2023-01-28T14:41:59.287Z,15.93
2023-01-28T14:44:33.431Z,17.15
2023-01-28T14:47:28.434Z,17.85
2023-01-28T14:50:10.766Z,14.20
2023-01-28T14:52:53.420Z,14.27
2023-01-28T14:55:33.337Z,16.75
2023-01-28T14:58:05.347Z,16.95
2023-01-28T15:00:35.147Z,16.40
2023-01-28T15:03:24.100Z,14.32
2023-01-28T15:06:02.945Z,18.50
2023-01-28T15:08:32.311Z,13.63
2023-01-28T15:11:02.703Z,18.88
2023-01-28T15:13:33.512Z,18.48
2023-01-28T15:16:01.754Z,18.45
2023-01-28T15:18:32.953Z,15.75
2023-01-28T15:21:01.493Z,16.15
2023-01-28T15:23:34.882Z,18.50
2023-01-28T15:26:06.688Z,16.33
2023-01-28T15:28:36.853Z,21.27
2023-01-28T15:31:05.053Z,20.40
2023-01-28T15:33:32.961Z,15.80
2023-01-28T15:36:00.956Z,18.50
2023-01-28T15:38:29.844Z,15.77
2023-01-28T15:41:01.235Z,18.20
2023-01-28T15:43:31.179Z,20.50
2023-01-28T15:46:00.099Z,20.02
2023-01-28T15:48:31.171Z,24.42
2023-01-28T15:51:00.446Z,18.10
2023-01-28T15:53:31.712Z,19.67
2023-01-28T15:56:08.684Z,17.42
2023-01-28T15:58:41.097Z,16.77
2023-01-28T16:01:17.433Z,17.48
2023-01-28T16:03:47.340Z,15.57
2023-01-28T16:06:18.548Z,17.90
2023-01-28T16:08:55.389Z,22.02
2023-01-28T16:11:27.124Z,16.30
2023-01-28T16:13:55.224Z,19.20
2023-01-28T16:16:29.424Z,20.80
2023-01-28T16:18:57.669Z,20.15
2023-01-28T16:21:27.751Z,19.83
2023-01-28T16:24:02.314Z,22.85
2023-01-28T16:26:34.108Z,21.17
2023-01-28T16:29:07.579Z,17.42
2023-01-28T16:31:35.233Z,20.10
2023-01-28T16:34:02.906Z,22.30
2023-01-28T16:36:30.543Z,20.00
2023-01-28T16:41:33.257Z,16.90
2023-01-28T16:44:05.548Z,18.95
2023-01-28T16:46:34.275Z,19.10
2023-01-28T16:49:03.097Z,19.17
2023-01-28T16:51:30.834Z,18.95
2023-01-28T16:53:59.498Z,17.73
2023-01-28T16:56:45.114Z,19.63
2023-01-28T16:59:15.738Z,18.50
2023-01-28T17:01:43.543Z,21.23
2023-01-28T17:04:12.855Z,22.02
2023-01-28T17:06:42.769Z,19.40
2023-01-28T17:09:11.680Z,19.77
2023-01-28T17:11:39.632Z,22.08
2023-01-28T17:14:07.588Z,25.80
2023-01-28T17:16:36.654Z,27.67
2023-01-28T17:19:04.406Z,22.33
2023-01-28T17:21:31.992Z,23.80
2023-01-28T17:24:01.027Z,24.10
2023-01-28T17:26:29.831Z,20.15
2023-01-28T17:28:57.746Z,21.88
2023-01-28T17:31:26.304Z,20.05
2023-01-28T17:33:57.151Z,24.63
2023-01-28T17:36:26.434Z,21.00
2023-01-28T17:38:54.614Z,19.85
2023-01-28T17:41:22.502Z,24.45
2023-01-28T17:43:54.541Z,19.23
2023-01-28T17:46:23.859Z,22.15
2023-01-28T17:48:51.766Z,23.63
2023-01-28T17:51:20.924Z,20.95
2023-01-28T17:53:49.926Z,17.13
2023-01-28T17:56:19.372Z,21.30
2023-01-28T17:58:51.582Z,22.98
2023-01-28T18:01:19.581Z,26.85
2023-01-28T18:03:47.274Z,23.20
2023-01-28T18:06:14.929Z,23.23
2023-01-28T18:08:44.121Z,19.98
2023-01-28T18:11:13.837Z,23.13
2023-01-28T18:13:42.094Z,23.77
2023-01-28T18:16:14.868Z,21.35
2023-01-28T18:18:42.861Z,23.58
2023-01-28T18:21:21.969Z,18.77
2023-01-28T18:23:52.908Z,20.98
2023-01-28T18:26:20.671Z,20.35
2023-01-28T18:28:49.208Z,23.48
2023-01-28T18:31:17.142Z,24.52
2023-01-28T18:33:44.867Z,22.40
2023-01-28T18:36:12.754Z,29.70
2023-01-28T18:38:40.418Z,27.10
2023-01-28T18:41:09.377Z,28.58
2023-01-28T18:43:36.974Z,27.08
2023-01-28T18:46:11.687Z,28.17
2023-01-28T18:48:39.372Z,28.30
2023-01-28T18:51:12.296Z,27.80
2023-01-28T18:53:45.432Z,25.33
2023-01-28T18:56:14.437Z,20.23
2023-01-28T18:58:42.085Z,26.52
2023-01-28T19:01:10.348Z,28.88
2023-01-28T19:03:38.801Z,24.58
2023-01-28T19:06:07.206Z,24.17
2023-01-28T19:08:35.301Z,21.15
2023-01-28T19:11:03.161Z,22.42
2023-01-28T19:13:32.170Z,22.63
2023-01-28T19:16:02.319Z,27.13
2023-01-28T19:18:30.301Z,23.90
2023-01-28T19:21:02.761Z,27.60
2023-01-28T19:23:40.955Z,24.63
2023-01-28T19:26:20.772Z,23.50
2023-01-28T19:28:50.126Z,23.08
2023-01-28T19:31:18.790Z,24.27
2023-01-28T19:33:46.567Z,22.52
2023-01-28T19:36:14.552Z,22.02
2023-01-28T19:38:42.375Z,23.38
2023-01-28T19:41:09.973Z,26.02
2023-01-28T19:43:37.538Z,26.73
2023-01-28T19:46:07.063Z,24.27
2023-01-28T19:48:35.094Z,28.23
2023-01-28T19:51:07.414Z,25.77
2023-01-28T19:53:35.917Z,26.77
2023-01-28T19:56:04.131Z,24.13
2023-01-28T19:58:34.220Z,24.05
2023-01-28T20:01:07.396Z,21.40
2023-01-28T20:03:35.576Z,25.27
2023-01-28T20:06:04.025Z,24.98
2023-01-28T20:08:32.082Z,30.20
2023-01-28T20:11:04.018Z,26.48
2023-01-28T20:13:32.733Z,24.20
2023-01-28T20:16:00.558Z,30.42
2023-01-28T20:18:29.511Z,27.65
2023-01-28T20:20:57.214Z,26.80
2023-01-28T20:23:24.855Z,25.63
2023-01-28T20:25:52.876Z,30.48
2023-01-28T20:28:20.782Z,33.20
2023-01-28T20:30:48.750Z,38.35
2023-01-28T20:33:16.752Z,36.03
2023-01-28T20:35:45.943Z,30.05
2023-01-28T20:38:14.581Z,32.30
2023-01-28T20:40:43.863Z,26.38
2023-01-28T20:43:11.597Z,27.15
2023-01-28T20:45:39.230Z,24.58
2023-01-28T20:48:07.288Z,28.98
2023-01-28T20:50:35.884Z,27.00
2023-01-28T20:53:05.342Z,23.70
2023-01-28T20:55:33.348Z,23.88
2023-01-28T20:58:01.486Z,23.75
2023-01-28T21:00:29.073Z,21.48
2023-01-28T21:02:56.608Z,23.40
2023-01-28T21:05:24.296Z,25.10
2023-01-28T21:07:52.023Z,22.25
2023-01-28T21:10:20.914Z,22.52
2023-01-28T21:12:48.483Z,22.67
2023-01-28T21:15:16.148Z,19.83
2023-01-28T21:17:43.827Z,24.83
2023-01-28T21:20:12.874Z,21.98
2023-01-28T21:22:40.717Z,20.58
2023-01-28T21:25:09.261Z,22.45
2023-01-28T21:27:38.275Z,22.30
2023-01-28T21:30:06.972Z,21.60
2023-01-28T21:32:34.604Z,23.23
2023-01-28T21:35:02.292Z,25.20
2023-01-28T21:37:29.883Z,20.73
2023-01-28T21:39:57.521Z,23.42
2023-01-28T21:42:25.622Z,24.08
2023-01-28T21:44:54.618Z,21.77
2023-01-28T21:47:22.298Z,23.48
2023-01-28T21:49:50.041Z,23.88
2023-01-28T21:52:17.631Z,21.02
2023-01-28T21:54:45.206Z,22.83
2023-01-28T21:57:12.790Z,22.65
2023-01-28T21:59:40.476Z,21.38
2023-01-28T22:02:12.062Z,23.35
2023-01-28T22:04:42.648Z,22.48
2023-01-28T22:07:12.520Z,21.65
2023-01-28T22:09:42.359Z,22.20
2023-01-28T22:12:11.484Z,24.00
2023-01-28T22:14:40.004Z,19.35
2023-01-28T22:17:11.695Z,20.88
2023-01-28T22:19:40.043Z,22.33
2023-01-28T22:22:08.072Z,24.17
2023-01-28T22:24:35.738Z,23.52
2023-01-28T22:27:03.396Z,21.77
2023-01-28T22:29:31.685Z,21.48
2023-01-28T22:32:00.324Z,25.92
2023-01-28T22:34:29.236Z,21.20
2023-01-28T22:36:56.816Z,24.13
2023-01-28T22:39:24.482Z,24.45
2023-01-28T22:41:52.146Z,22.73
2023-01-28T22:44:20.769Z,18.85
2023-01-28T22:46:48.550Z,20.33
2023-01-28T22:49:16.171Z,25.13
2023-01-28T22:51:45.087Z,26.65
2023-01-28T22:54:14.660Z,21.02
2023-01-28T22:56:42.214Z,22.10
2023-01-28T22:59:11.379Z,17.02
2023-01-28T23:01:39.925Z,22.65
2023-01-28T23:04:07.461Z,22.83
2023-01-28T23:06:37.059Z,21.00
2023-01-28T23:09:05.964Z,23.92
2023-01-28T23:11:33.579Z,19.63
2023-01-28T23:14:21.332Z,21.35
2023-01-28T23:17:06.976Z,22.63
2023-01-28T23:19:52.204Z,21.52
2023-01-28T23:22:40.965Z,22.08
2023-01-28T23:25:10.429Z,21.58
2023-01-28T23:27:38.281Z,22.63
2023-01-28T23:30:09.913Z,20.20
2023-01-28T23:32:39.846Z,22.13
2023-01-28T23:35:08.161Z,24.00
2023-01-28T23:37:35.703Z,20.13
2023-01-28T23:40:03.427Z,20.77
2023-01-28T23:42:32.316Z,25.10
2023-01-28T23:45:00.509Z,26.70
2023-01-28T23:47:28.087Z,20.92
2023-01-28T23:49:55.660Z,22.10
2023-01-28T23:52:23.929Z,21.08
2023-01-28T23:54:51.462Z,22.33
2023-01-28T23:57:19.120Z,21.50
2023-01-28T23:59:48.223Z,24.38
